sensor_id;sensor_type;location;lat;lon;timestamp;temperature;humidity
1461;DHT22;724;49.910;12.530;2023-06-22T00:02:17;16.30;1.00
1461;DHT22;724;49.910;12.530;2023-06-22T00:04:44;16.20;1.00
1461;DHT22;724;49.910;12.530;2023-06-22T00:07:11;16.10;99.90
1461;DHT22;724;49.910;12.530;2023-06-22T00:09:37;16.20;99.90
1461;DHT22;724;49.910;12.530;2023-06-22T00:12:05;16.20;1.00
1461;DHT22;724;49.910;12.530;2023-06-22T00:14:33;16.20;1.00
1461;DHT22;724;49.910;12.530;2023-06-22T00:17:00;16.10;99.90
1461;DHT22;724;49.910;12.530;2023-06-22T00:19:27;16.00;99.90
1461;DHT22;724;49.910;12.530;2023-06-22T00:21:53;15.80;99.90
1461;DHT22;724;49.910;12.530;2023-06-22T00:24:20;15.90;99.90
1461;DHT22;724;49.910;12.530;2023-06-22T00:26:47;15.90;1.00
1461;DHT22;724;49.910;12.530;2023-06-22T00:29:14;15.80;1.00
1461;DHT22;724;49.910;12.530;2023-06-22T00:31:42;15.80;1.00
1461;DHT22;724;49.910;12.530;2023-06-22T00:34:09;15.80;99.90
1461;DHT22;724;49.910;12.530;2023-06-22T00:36:36;15.90;99.90
1461;DHT22;724;49.910;12.530;2023-06-22T00:39:10;15.70;1.00
1461;DHT22;724;49.910;12.530;2023-06-22T00:41:37;15.60;1.00
1461;DHT22;724;49.910;12.530;2023-06-22T00:44:04;15.60;99.90
1461;DHT22;724;49.910;12.530;2023-06-22T00:46:32;15.70;99.90
1461;DHT22;724;49.910;12.530;2023-06-22T00:49:00;15.70;1.00
1461;DHT22;724;49.910;12.530;2023-06-22T00:51:29;15.60;1.00
1461;DHT22;724;49.910;12.530;2023-06-22T00:53:56;15.60;1.00
1461;DHT22;724;49.910;12.530;2023-06-22T00:56:24;15.60;1.00
1461;DHT22;724;49.910;12.530;2023-06-22T00:58:51;15.50;99.90
1461;DHT22;724;49.910;12.530;2023-06-22T01:01:19;15.50;99.90
1461;DHT22;724;49.910;12.530;2023-06-22T01:03:49;15.40;99.90
1461;DHT22;724;49.910;12.530;2023-06-22T01:06:21;15.50;1.00
1461;DHT22;724;49.910;12.530;2023-06-22T01:09:00;15.50;1.00
1461;DHT22;724;49.910;12.530;2023-06-22T01:11:32;15.50;1.00
1461;DHT22;724;49.910;12.530;2023-06-22T01:14:08;15.50;1.00
1461;DHT22;724;49.910;12.530;2023-06-22T01:16:41;15.30;1.00
1461;DHT22;724;49.910;12.530;2023-06-22T01:19:20;15.40;1.00
1461;DHT22;724;49.910;12.530;2023-06-22T01:21:52;15.30;1.00
1461;DHT22;724;49.910;12.530;2023-06-22T01:24:24;15.30;1.00
1461;DHT22;724;49.910;12.530;2023-06-22T01:27:00;15.20;1.00
1461;DHT22;724;49.910;12.530;2023-06-22T01:29:33;15.20;1.00
1461;DHT22;724;49.910;12.530;2023-06-22T01:32:02;15.10;1.00
1461;DHT22;724;49.910;12.530;2023-06-22T01:34:31;15.20;1.00
1461;DHT22;724;49.910;12.530;2023-06-22T01:36:59;15.30;99.90
1461;DHT22;724;49.910;12.530;2023-06-22T01:39:26;15.10;1.00
1461;DHT22;724;49.910;12.530;2023-06-22T01:41:54;15.10;99.90
1461;DHT22;724;49.910;12.530;2023-06-22T01:44:21;15.00;1.00
1461;DHT22;724;49.910;12.530;2023-06-22T01:46:51;14.80;99.90
1461;DHT22;724;49.910;12.530;2023-06-22T01:49:18;14.80;1.00
1461;DHT22;724;49.910;12.530;2023-06-22T01:51:45;14.80;1.00
1461;DHT22;724;49.910;12.530;2023-06-22T01:54:12;14.80;75.00
1461;DHT22;724;49.910;12.530;2023-06-22T01:56:39;14.80;99.90
1461;DHT22;724;49.910;12.530;2023-06-22T01:59:11;14.90;1.00
1461;DHT22;724;49.910;12.530;2023-06-22T02:01:42;14.90;1.00
1461;DHT22;724;49.910;12.530;2023-06-22T02:04:17;15.00;1.00
1461;DHT22;724;49.910;12.530;2023-06-22T02:06:47;15.00;1.00
1461;DHT22;724;49.910;12.530;2023-06-22T02:09:17;15.00;1.00
1461;DHT22;724;49.910;12.530;2023-06-22T02:11:46;15.00;1.00
1461;DHT22;724;49.910;12.530;2023-06-22T02:14:15;14.90;1.00
1461;DHT22;724;49.910;12.530;2023-06-22T02:16:42;14.90;13.50
1461;DHT22;724;49.910;12.530;2023-06-22T02:19:16;14.90;98.60
1461;DHT22;724;49.910;12.530;2023-06-22T02:21:44;15.00;99.90
1461;DHT22;724;49.910;12.530;2023-06-22T02:24:10;15.10;99.90
1461;DHT22;724;49.910;12.530;2023-06-22T02:26:37;15.10;39.70
1461;DHT22;724;49.910;12.530;2023-06-22T02:29:05;15.10;1.00
1461;DHT22;724;49.910;12.530;2023-06-22T02:31:32;15.10;1.00
1461;DHT22;724;49.910;12.530;2023-06-22T02:33:59;14.90;99.90
1461;DHT22;724;49.910;12.530;2023-06-22T02:36:27;14.80;1.00
1461;DHT22;724;49.910;12.530;2023-06-22T02:38:56;14.70;1.00
1461;DHT22;724;49.910;12.530;2023-06-22T02:41:26;14.80;1.00
1461;DHT22;724;49.910;12.530;2023-06-22T02:43:53;14.80;49.30
1461;DHT22;724;49.910;12.530;2023-06-22T02:46:19;14.90;1.00
1461;DHT22;724;49.910;12.530;2023-06-22T02:48:46;14.80;99.90
1461;DHT22;724;49.910;12.530;2023-06-22T02:51:13;14.70;99.90
1461;DHT22;724;49.910;12.530;2023-06-22T02:53:41;14.70;99.90
1461;DHT22;724;49.910;12.530;2023-06-22T02:56:10;14.80;1.00
1461;DHT22;724;49.910;12.530;2023-06-22T02:58:38;15.10;1.00
1461;DHT22;724;49.910;12.530;2023-06-22T03:01:05;15.30;99.90
1461;DHT22;724;49.910;12.530;2023-06-22T03:03:31;15.40;99.90
1461;DHT22;724;49.910;12.530;2023-06-22T03:05:58;15.50;99.90
1461;DHT22;724;49.910;12.530;2023-06-22T03:08:26;15.60;99.90
1461;DHT22;724;49.910;12.530;2023-06-22T03:13:21;15.70;99.90
1461;DHT22;724;49.910;12.530;2023-06-22T03:15:48;15.70;99.90
1461;DHT22;724;49.910;12.530;2023-06-22T03:18:14;15.80;99.90
1461;DHT22;724;49.910;12.530;2023-06-22T03:20:42;15.90;99.90
1461;DHT22;724;49.910;12.530;2023-06-22T03:23:08;16.00;99.90
1461;DHT22;724;49.910;12.530;2023-06-22T03:25:35;16.00;99.90
1461;DHT22;724;49.910;12.530;2023-06-22T03:28:04;16.00;99.90
1461;DHT22;724;49.910;12.530;2023-06-22T03:30:30;16.10;99.90
1461;DHT22;724;49.910;12.530;2023-06-22T03:32:57;16.20;99.90
1461;DHT22;724;49.910;12.530;2023-06-22T03:35:24;16.20;92.10
1461;DHT22;724;49.910;12.530;2023-06-22T03:37:50;16.30;10.90
1461;DHT22;724;49.910;12.530;2023-06-22T03:40:17;16.60;1.00
1461;DHT22;724;49.910;12.530;2023-06-22T03:42:44;16.60;1.00
1461;DHT22;724;49.910;12.530;2023-06-22T03:45:12;16.60;99.90
1461;DHT22;724;49.910;12.530;2023-06-22T03:47:38;16.50;99.90
1461;DHT22;724;49.910;12.530;2023-06-22T03:50:06;16.60;99.90
1461;DHT22;724;49.910;12.530;2023-06-22T03:52:33;16.60;99.90
1461;DHT22;724;49.910;12.530;2023-06-22T03:55:00;16.70;48.10
1461;DHT22;724;49.910;12.530;2023-06-22T03:57:26;16.70;1.00
1461;DHT22;724;49.910;12.530;2023-06-22T03:59:56;16.80;1.00
1461;DHT22;724;49.910;12.530;2023-06-22T04:02:24;16.80;1.00
1461;DHT22;724;49.910;12.530;2023-06-22T04:04:51;16.90;1.00
1461;DHT22;724;49.910;12.530;2023-06-22T04:07:18;17.00;99.90
1461;DHT22;724;49.910;12.530;2023-06-22T04:09:44;17.10;99.90
1461;DHT22;724;49.910;12.530;2023-06-22T04:12:11;17.20;84.00
1461;DHT22;724;49.910;12.530;2023-06-22T04:14:38;17.20;1.00
1461;DHT22;724;49.910;12.530;2023-06-22T04:17:05;17.30;1.00
1461;DHT22;724;49.910;12.530;2023-06-22T04:19:33;17.30;1.00
1461;DHT22;724;49.910;12.530;2023-06-22T04:21:59;17.40;1.00
1461;DHT22;724;49.910;12.530;2023-06-22T04:24:26;17.40;1.00
1461;DHT22;724;49.910;12.530;2023-06-22T04:26:53;17.40;1.00
1461;DHT22;724;49.910;12.530;2023-06-22T04:29:21;17.40;1.00
1461;DHT22;724;49.910;12.530;2023-06-22T04:31:54;17.50;1.00
1461;DHT22;724;49.910;12.530;2023-06-22T04:34:23;17.50;99.90
1461;DHT22;724;49.910;12.530;2023-06-22T04:36:53;17.60;1.00
1461;DHT22;724;49.910;12.530;2023-06-22T04:39:20;17.80;99.90
1461;DHT22;724;49.910;12.530;2023-06-22T04:41:47;17.80;99.90
1461;DHT22;724;49.910;12.530;2023-06-22T04:44:15;17.80;48.20
1461;DHT22;724;49.910;12.530;2023-06-22T04:46:49;17.90;1.00
1461;DHT22;724;49.910;12.530;2023-06-22T04:49:20;17.80;1.00
1461;DHT22;724;49.910;12.530;2023-06-22T04:51:47;18.00;1.00
1461;DHT22;724;49.910;12.530;2023-06-22T04:54:15;18.10;1.00
1461;DHT22;724;49.910;12.530;2023-06-22T04:56:42;18.20;1.00
1461;DHT22;724;49.910;12.530;2023-06-22T04:59:12;18.40;1.00
1461;DHT22;724;49.910;12.530;2023-06-22T05:01:39;18.40;1.00
1461;DHT22;724;49.910;12.530;2023-06-22T05:04:06;18.50;99.90
1461;DHT22;724;49.910;12.530;2023-06-22T05:06:33;18.60;99.90
1461;DHT22;724;49.910;12.530;2023-06-22T05:09:00;18.70;99.90
1461;DHT22;724;49.910;12.530;2023-06-22T05:11:28;18.80;99.90
1461;DHT22;724;49.910;12.530;2023-06-22T05:13:56;18.70;99.90
1461;DHT22;724;49.910;12.530;2023-06-22T05:16:25;18.90;99.90
1461;DHT22;724;49.910;12.530;2023-06-22T05:18:52;18.70;99.90
1461;DHT22;724;49.910;12.530;2023-06-22T05:21:22;18.80;99.90
1461;DHT22;724;49.910;12.530;2023-06-22T05:23:49;18.90;99.90
1461;DHT22;724;49.910;12.530;2023-06-22T05:26:16;18.80;99.90
1461;DHT22;724;49.910;12.530;2023-06-22T05:28:44;19.30;99.90
1461;DHT22;724;49.910;12.530;2023-06-22T05:31:12;19.50;99.90
1461;DHT22;724;49.910;12.530;2023-06-22T05:33:39;19.70;1.00
1461;DHT22;724;49.910;12.530;2023-06-22T05:36:06;19.70;1.00
1461;DHT22;724;49.910;12.530;2023-06-22T05:38:33;20.00;1.00
1461;DHT22;724;49.910;12.530;2023-06-22T05:41:00;20.30;1.00
1461;DHT22;724;49.910;12.530;2023-06-22T05:43:26;20.30;1.00
1461;DHT22;724;49.910;12.530;2023-06-22T05:45:55;20.10;99.90
1461;DHT22;724;49.910;12.530;2023-06-22T05:48:21;20.00;99.90
1461;DHT22;724;49.910;12.530;2023-06-22T05:50:48;20.20;99.90
1461;DHT22;724;49.910;12.530;2023-06-22T05:53:15;20.10;99.90
1461;DHT22;724;49.910;12.530;2023-06-22T05:55:42;20.50;99.90
1461;DHT22;724;49.910;12.530;2023-06-22T05:58:09;20.40;99.90
1461;DHT22;724;49.910;12.530;2023-06-22T06:00:36;20.70;99.90
1461;DHT22;724;49.910;12.530;2023-06-22T06:03:04;20.90;99.90
1461;DHT22;724;49.910;12.530;2023-06-22T06:05:31;20.70;99.90
1461;DHT22;724;49.910;12.530;2023-06-22T06:07:58;21.10;99.90
1461;DHT22;724;49.910;12.530;2023-06-22T06:10:25;21.10;58.00
1461;DHT22;724;49.910;12.530;2023-06-22T06:12:52;21.00;7.20
1461;DHT22;724;49.910;12.530;2023-06-22T06:15:18;20.70;1.70
1461;DHT22;724;49.910;12.530;2023-06-22T06:17:46;20.80;17.90
1461;DHT22;724;49.910;12.530;2023-06-22T06:20:14;21.20;25.90
1461;DHT22;724;49.910;12.530;2023-06-22T06:22:41;21.40;1.00
1461;DHT22;724;49.910;12.530;2023-06-22T06:25:09;22.10;1.00
1461;DHT22;724;49.910;12.530;2023-06-22T06:27:41;21.70;1.00
1461;DHT22;724;49.910;12.530;2023-06-22T06:30:09;21.70;1.00
1461;DHT22;724;49.910;12.530;2023-06-22T06:32:36;21.70;1.00
1461;DHT22;724;49.910;12.530;2023-06-22T06:35:04;21.80;1.00
1461;DHT22;724;49.910;12.530;2023-06-22T06:37:35;21.60;1.00
1461;DHT22;724;49.910;12.530;2023-06-22T06:40:02;21.70;1.00
1461;DHT22;724;49.910;12.530;2023-06-22T06:42:35;21.70;1.00
1461;DHT22;724;49.910;12.530;2023-06-22T06:45:04;21.60;1.00
1461;DHT22;724;49.910;12.530;2023-06-22T06:47:30;22.00;1.00
1461;DHT22;724;49.910;12.530;2023-06-22T06:49:57;22.10;1.00
1461;DHT22;724;49.910;12.530;2023-06-22T06:52:25;22.20;1.00
1461;DHT22;724;49.910;12.530;2023-06-22T06:54:53;22.00;1.00
1461;DHT22;724;49.910;12.530;2023-06-22T06:57:20;22.00;1.00
1461;DHT22;724;49.910;12.530;2023-06-22T06:59:48;22.20;1.00
1461;DHT22;724;49.910;12.530;2023-06-22T07:02:14;22.60;1.00
1461;DHT22;724;49.910;12.530;2023-06-22T07:04:41;23.00;1.00
1461;DHT22;724;49.910;12.530;2023-06-22T07:07:08;22.70;1.00
1461;DHT22;724;49.910;12.530;2023-06-22T07:09:35;22.40;1.00
1461;DHT22;724;49.910;12.530;2023-06-22T07:12:03;22.60;1.00
1461;DHT22;724;49.910;12.530;2023-06-22T07:14:30;23.00;1.00
1461;DHT22;724;49.910;12.530;2023-06-22T07:16:58;23.00;1.00
1461;DHT22;724;49.910;12.530;2023-06-22T07:19:25;23.00;1.00
1461;DHT22;724;49.910;12.530;2023-06-22T07:21:52;22.90;1.00
1461;DHT22;724;49.910;12.530;2023-06-22T07:24:19;23.00;1.00
1461;DHT22;724;49.910;12.530;2023-06-22T07:26:46;23.20;1.00
1461;DHT22;724;49.910;12.530;2023-06-22T07:29:15;23.60;1.00
1461;DHT22;724;49.910;12.530;2023-06-22T07:31:41;23.30;1.00
1461;DHT22;724;49.910;12.530;2023-06-22T07:34:08;23.80;1.00
1461;DHT22;724;49.910;12.530;2023-06-22T07:36:35;23.60;1.00
1461;DHT22;724;49.910;12.530;2023-06-22T07:39:02;23.80;1.00
1461;DHT22;724;49.910;12.530;2023-06-22T07:41:29;24.10;1.00
1461;DHT22;724;49.910;12.530;2023-06-22T07:43:56;23.90;1.00
1461;DHT22;724;49.910;12.530;2023-06-22T07:46:24;24.10;1.00
1461;DHT22;724;49.910;12.530;2023-06-22T07:48:51;24.70;99.90
1461;DHT22;724;49.910;12.530;2023-06-22T07:51:18;24.30;99.90
1461;DHT22;724;49.910;12.530;2023-06-22T07:53:44;24.30;99.90
1461;DHT22;724;49.910;12.530;2023-06-22T07:56:11;24.40;99.90
1461;DHT22;724;49.910;12.530;2023-06-22T07:58:38;24.40;99.90
1461;DHT22;724;49.910;12.530;2023-06-22T08:01:05;24.80;99.90
1461;DHT22;724;49.910;12.530;2023-06-22T08:03:34;24.50;99.90
1461;DHT22;724;49.910;12.530;2023-06-22T08:06:00;24.40;99.90
1461;DHT22;724;49.910;12.530;2023-06-22T08:08:27;24.40;99.90
1461;DHT22;724;49.910;12.530;2023-06-22T08:10:54;24.30;99.90
1461;DHT22;724;49.910;12.530;2023-06-22T08:13:21;24.70;99.90
1461;DHT22;724;49.910;12.530;2023-06-22T08:15:47;24.80;99.90
1461;DHT22;724;49.910;12.530;2023-06-22T08:18:14;24.80;99.90
1461;DHT22;724;49.910;12.530;2023-06-22T08:20:43;24.90;99.90
1461;DHT22;724;49.910;12.530;2023-06-22T08:23:10;24.80;99.90
1461;DHT22;724;49.910;12.530;2023-06-22T08:25:36;25.00;99.90
1461;DHT22;724;49.910;12.530;2023-06-22T08:28:04;25.10;99.90
1461;DHT22;724;49.910;12.530;2023-06-22T08:30:31;25.60;99.90
1461;DHT22;724;49.910;12.530;2023-06-22T08:32:58;25.60;99.90
1461;DHT22;724;49.910;12.530;2023-06-22T08:35:25;25.60;99.90
1461;DHT22;724;49.910;12.530;2023-06-22T08:37:53;25.40;99.90
1461;DHT22;724;49.910;12.530;2023-06-22T08:40:22;25.40;99.90
1461;DHT22;724;49.910;12.530;2023-06-22T08:42:49;25.50;99.90
1461;DHT22;724;49.910;12.530;2023-06-22T08:45:16;25.80;99.90
1461;DHT22;724;49.910;12.530;2023-06-22T08:47:43;25.60;99.90
1461;DHT22;724;49.910;12.530;2023-06-22T08:50:11;25.80;99.90
1461;DHT22;724;49.910;12.530;2023-06-22T08:52:39;25.60;99.90
1461;DHT22;724;49.910;12.530;2023-06-22T08:55:09;25.70;99.90
1461;DHT22;724;49.910;12.530;2023-06-22T08:57:36;26.00;99.90
1461;DHT22;724;49.910;12.530;2023-06-22T09:00:06;26.30;99.90
1461;DHT22;724;49.910;12.530;2023-06-22T09:02:40;26.90;99.90
1461;DHT22;724;49.910;12.530;2023-06-22T09:05:08;26.70;99.90
1461;DHT22;724;49.910;12.530;2023-06-22T09:07:34;26.60;99.90
1461;DHT22;724;49.910;12.530;2023-06-22T09:10:01;26.50;99.90
1461;DHT22;724;49.910;12.530;2023-06-22T09:12:31;26.70;99.90
1461;DHT22;724;49.910;12.530;2023-06-22T09:14:58;26.10;99.90
1461;DHT22;724;49.910;12.530;2023-06-22T09:17:26;26.20;99.90
1461;DHT22;724;49.910;12.530;2023-06-22T09:19:53;27.00;99.90
1461;DHT22;724;49.910;12.530;2023-06-22T09:22:20;26.00;99.90
1461;DHT22;724;49.910;12.530;2023-06-22T09:24:46;25.80;99.90
1461;DHT22;724;49.910;12.530;2023-06-22T09:27:13;26.00;99.90
1461;DHT22;724;49.910;12.530;2023-06-22T09:29:41;26.10;99.90
1461;DHT22;724;49.910;12.530;2023-06-22T09:32:08;26.50;99.90
1461;DHT22;724;49.910;12.530;2023-06-22T09:34:35;26.60;99.90
1461;DHT22;724;49.910;12.530;2023-06-22T09:37:02;26.90;99.90
1461;DHT22;724;49.910;12.530;2023-06-22T09:39:28;26.90;99.90
1461;DHT22;724;49.910;12.530;2023-06-22T09:41:55;27.00;99.90
1461;DHT22;724;49.910;12.530;2023-06-22T09:44:22;26.90;99.90
1461;DHT22;724;49.910;12.530;2023-06-22T09:46:50;27.20;99.90
1461;DHT22;724;49.910;12.530;2023-06-22T09:49:16;27.10;99.90
1461;DHT22;724;49.910;12.530;2023-06-22T09:51:43;26.90;99.90
1461;DHT22;724;49.910;12.530;2023-06-22T09:54:10;27.00;99.90
1461;DHT22;724;49.910;12.530;2023-06-22T09:56:37;27.40;99.90
1461;DHT22;724;49.910;12.530;2023-06-22T09:59:04;27.40;99.90
1461;DHT22;724;49.910;12.530;2023-06-22T10:01:30;27.30;99.90
1461;DHT22;724;49.910;12.530;2023-06-22T10:03:58;27.20;99.90
1461;DHT22;724;49.910;12.530;2023-06-22T10:06:25;27.40;99.90
1461;DHT22;724;49.910;12.530;2023-06-22T10:08:52;28.20;99.90
1461;DHT22;724;49.910;12.530;2023-06-22T10:11:19;27.80;96.10
1461;DHT22;724;49.910;12.530;2023-06-22T10:13:45;27.60;96.40
1461;DHT22;724;49.910;12.530;2023-06-22T10:16:12;28.30;98.70
1461;DHT22;724;49.910;12.530;2023-06-22T10:18:39;28.20;89.40
1461;DHT22;724;49.910;12.530;2023-06-22T10:21:07;27.00;65.10
1461;DHT22;724;49.910;12.530;2023-06-22T10:23:33;27.10;69.90
1461;DHT22;724;49.910;12.530;2023-06-22T10:26:00;27.30;69.10
1461;DHT22;724;49.910;12.530;2023-06-22T10:28:27;27.10;67.00
1461;DHT22;724;49.910;12.530;2023-06-22T10:30:54;27.40;76.30
1461;DHT22;724;49.910;12.530;2023-06-22T10:33:20;27.50;72.80
1461;DHT22;724;49.910;12.530;2023-06-22T10:35:48;27.00;52.50
1461;DHT22;724;49.910;12.530;2023-06-22T10:38:16;27.20;50.40
1461;DHT22;724;49.910;12.530;2023-06-22T10:40:43;27.80;55.30
1461;DHT22;724;49.910;12.530;2023-06-22T10:43:11;28.10;52.70
1461;DHT22;724;49.910;12.530;2023-06-22T10:45:38;27.50;38.20
1461;DHT22;724;49.910;12.530;2023-06-22T10:48:04;27.70;41.60
1461;DHT22;724;49.910;12.530;2023-06-22T10:50:31;27.90;41.60
1461;DHT22;724;49.910;12.530;2023-06-22T10:52:58;28.10;40.00
1461;DHT22;724;49.910;12.530;2023-06-22T10:55:26;28.10;39.30
1461;DHT22;724;49.910;12.530;2023-06-22T10:57:53;28.10;32.90
1461;DHT22;724;49.910;12.530;2023-06-22T11:00:20;28.10;28.10
1461;DHT22;724;49.910;12.530;2023-06-22T11:02:46;28.10;13.20
1461;DHT22;724;49.910;12.530;2023-06-22T11:05:20;28.30;4.90
1461;DHT22;724;49.910;12.530;2023-06-22T11:07:47;28.40;2.60
1461;DHT22;724;49.910;12.530;2023-06-22T11:10:17;28.20;5.90
1461;DHT22;724;49.910;12.530;2023-06-22T11:12:45;28.90;13.60
1461;DHT22;724;49.910;12.530;2023-06-22T11:15:12;28.60;1.00
1461;DHT22;724;49.910;12.530;2023-06-22T11:17:39;27.90;1.00
1461;DHT22;724;49.910;12.530;2023-06-22T11:20:08;27.60;1.00
1461;DHT22;724;49.910;12.530;2023-06-22T11:22:36;28.00;1.00
1461;DHT22;724;49.910;12.530;2023-06-22T11:25:03;28.30;1.00
1461;DHT22;724;49.910;12.530;2023-06-22T11:27:30;28.60;1.00
1461;DHT22;724;49.910;12.530;2023-06-22T11:29:58;29.10;1.00
1461;DHT22;724;49.910;12.530;2023-06-22T11:32:25;29.00;1.00
1461;DHT22;724;49.910;12.530;2023-06-22T11:34:52;28.80;1.00
1461;DHT22;724;49.910;12.530;2023-06-22T11:37:19;27.90;1.00
1461;DHT22;724;49.910;12.530;2023-06-22T11:39:46;28.40;1.00
1461;DHT22;724;49.910;12.530;2023-06-22T11:42:12;28.70;1.00
1461;DHT22;724;49.910;12.530;2023-06-22T11:44:39;28.90;1.00
1461;DHT22;724;49.910;12.530;2023-06-22T11:47:07;28.50;1.00
1461;DHT22;724;49.910;12.530;2023-06-22T11:49:34;28.50;1.00
1461;DHT22;724;49.910;12.530;2023-06-22T11:52:01;28.80;1.00
1461;DHT22;724;49.910;12.530;2023-06-22T11:54:28;27.80;1.00
1461;DHT22;724;49.910;12.530;2023-06-22T11:56:54;27.80;1.00
1461;DHT22;724;49.910;12.530;2023-06-22T11:59:21;28.90;1.00
1461;DHT22;724;49.910;12.530;2023-06-22T12:01:48;29.20;1.00
1461;DHT22;724;49.910;12.530;2023-06-22T12:04:17;29.10;1.00
1461;DHT22;724;49.910;12.530;2023-06-22T12:06:44;28.90;1.00
1461;DHT22;724;49.910;12.530;2023-06-22T12:09:11;28.30;1.00
1461;DHT22;724;49.910;12.530;2023-06-22T12:11:39;28.20;1.00
1461;DHT22;724;49.910;12.530;2023-06-22T12:14:05;28.20;1.00
1461;DHT22;724;49.910;12.530;2023-06-22T12:16:32;28.70;1.00
1461;DHT22;724;49.910;12.530;2023-06-22T12:18:59;29.10;1.00
1461;DHT22;724;49.910;12.530;2023-06-22T12:21:27;29.10;1.00
1461;DHT22;724;49.910;12.530;2023-06-22T12:23:54;29.40;1.00
1461;DHT22;724;49.910;12.530;2023-06-22T12:26:21;29.70;1.00
1461;DHT22;724;49.910;12.530;2023-06-22T12:28:48;28.80;1.00
1461;DHT22;724;49.910;12.530;2023-06-22T12:31:15;29.10;1.00
1461;DHT22;724;49.910;12.530;2023-06-22T12:33:42;28.80;1.00
1461;DHT22;724;49.910;12.530;2023-06-22T12:36:08;29.50;1.00
1461;DHT22;724;49.910;12.530;2023-06-22T12:38:36;29.30;1.00
1461;DHT22;724;49.910;12.530;2023-06-22T12:41:03;29.50;1.00
1461;DHT22;724;49.910;12.530;2023-06-22T12:43:30;29.00;1.00
1461;DHT22;724;49.910;12.530;2023-06-22T12:45:57;29.30;1.00
1461;DHT22;724;49.910;12.530;2023-06-22T12:48:26;29.40;1.00
1461;DHT22;724;49.910;12.530;2023-06-22T12:50:53;29.50;1.00
1461;DHT22;724;49.910;12.530;2023-06-22T12:53:20;28.70;1.00
1461;DHT22;724;49.910;12.530;2023-06-22T12:55:49;28.80;1.00
1461;DHT22;724;49.910;12.530;2023-06-22T12:58:16;29.50;1.00
1461;DHT22;724;49.910;12.530;2023-06-22T13:00:43;29.30;1.00
1461;DHT22;724;49.910;12.530;2023-06-22T13:03:10;29.30;1.00
1461;DHT22;724;49.910;12.530;2023-06-22T13:05:36;29.60;1.00
1461;DHT22;724;49.910;12.530;2023-06-22T13:08:03;29.40;1.00
1461;DHT22;724;49.910;12.530;2023-06-22T13:10:30;29.70;1.00
1461;DHT22;724;49.910;12.530;2023-06-22T13:12:58;29.60;1.00
1461;DHT22;724;49.910;12.530;2023-06-22T13:15:27;30.10;1.00
1461;DHT22;724;49.910;12.530;2023-06-22T13:17:54;29.60;1.00
1461;DHT22;724;49.910;12.530;2023-06-22T13:20:21;29.60;1.00
1461;DHT22;724;49.910;12.530;2023-06-22T13:22:47;29.90;1.00
1461;DHT22;724;49.910;12.530;2023-06-22T13:25:14;30.00;1.00
1461;DHT22;724;49.910;12.530;2023-06-22T13:27:44;29.20;1.00
1461;DHT22;724;49.910;12.530;2023-06-22T13:30:13;29.60;1.00
1461;DHT22;724;49.910;12.530;2023-06-22T13:32:40;29.70;1.00
1461;DHT22;724;49.910;12.530;2023-06-22T13:35:08;30.00;1.00
1461;DHT22;724;49.910;12.530;2023-06-22T13:37:35;29.80;1.00
1461;DHT22;724;49.910;12.530;2023-06-22T13:40:02;30.00;1.00
1461;DHT22;724;49.910;12.530;2023-06-22T13:42:30;29.90;1.00
1461;DHT22;724;49.910;12.530;2023-06-22T13:44:57;29.70;1.00
1461;DHT22;724;49.910;12.530;2023-06-22T13:47:25;29.60;1.00
1461;DHT22;724;49.910;12.530;2023-06-22T13:49:52;29.70;1.00
1461;DHT22;724;49.910;12.530;2023-06-22T13:52:19;29.80;1.00
1461;DHT22;724;49.910;12.530;2023-06-22T13:54:45;29.80;1.00
1461;DHT22;724;49.910;12.530;2023-06-22T13:57:12;30.10;1.00
1461;DHT22;724;49.910;12.530;2023-06-22T13:59:39;30.30;1.00
1461;DHT22;724;49.910;12.530;2023-06-22T14:02:06;29.50;1.00
1461;DHT22;724;49.910;12.530;2023-06-22T14:04:34;29.60;1.00
1461;DHT22;724;49.910;12.530;2023-06-22T14:07:01;29.80;1.00
1461;DHT22;724;49.910;12.530;2023-06-22T14:09:27;29.80;1.00
1461;DHT22;724;49.910;12.530;2023-06-22T14:11:54;29.40;1.00
1461;DHT22;724;49.910;12.530;2023-06-22T14:14:22;29.10;1.00
1461;DHT22;724;49.910;12.530;2023-06-22T14:16:48;29.70;1.00
1461;DHT22;724;49.910;12.530;2023-06-22T14:19:17;29.50;1.00
1461;DHT22;724;49.910;12.530;2023-06-22T14:21:46;30.10;1.00
1461;DHT22;724;49.910;12.530;2023-06-22T14:24:13;30.30;1.00
1461;DHT22;724;49.910;12.530;2023-06-22T14:26:39;29.80;1.00
1461;DHT22;724;49.910;12.530;2023-06-22T14:29:06;29.50;1.00
1461;DHT22;724;49.910;12.530;2023-06-22T14:31:33;29.00;1.00
1461;DHT22;724;49.910;12.530;2023-06-22T14:34:00;29.10;1.00
1461;DHT22;724;49.910;12.530;2023-06-22T14:36:28;29.40;1.00
1461;DHT22;724;49.910;12.530;2023-06-22T14:38:56;29.20;1.00
1461;DHT22;724;49.910;12.530;2023-06-22T14:41:22;29.00;1.00
1461;DHT22;724;49.910;12.530;2023-06-22T14:43:50;29.40;1.00
1461;DHT22;724;49.910;12.530;2023-06-22T14:46:18;29.80;1.00
1461;DHT22;724;49.910;12.530;2023-06-22T14:48:45;29.20;1.00
1461;DHT22;724;49.910;12.530;2023-06-22T14:51:12;29.50;1.00
1461;DHT22;724;49.910;12.530;2023-06-22T14:53:39;29.80;1.00
1461;DHT22;724;49.910;12.530;2023-06-22T14:56:07;30.00;1.00
1461;DHT22;724;49.910;12.530;2023-06-22T15:01:09;30.00;1.00
1461;DHT22;724;49.910;12.530;2023-06-22T15:03:35;29.90;1.00
1461;DHT22;724;49.910;12.530;2023-06-22T15:06:03;29.90;1.00
1461;DHT22;724;49.910;12.530;2023-06-22T15:08:30;29.90;1.00
1461;DHT22;724;49.910;12.530;2023-06-22T15:10:58;29.90;1.00
1461;DHT22;724;49.910;12.530;2023-06-22T15:13:29;30.30;1.00
1461;DHT22;724;49.910;12.530;2023-06-22T15:15:58;30.20;1.00
1461;DHT22;724;49.910;12.530;2023-06-22T15:18:24;30.00;1.00
1461;DHT22;724;49.910;12.530;2023-06-22T15:20:51;30.10;1.00
1461;DHT22;724;49.910;12.530;2023-06-22T15:23:20;30.10;1.00
1461;DHT22;724;49.910;12.530;2023-06-22T15:25:47;29.40;1.00
1461;DHT22;724;49.910;12.530;2023-06-22T15:28:14;29.40;1.00
1461;DHT22;724;49.910;12.530;2023-06-22T15:30:43;29.50;1.00
1461;DHT22;724;49.910;12.530;2023-06-22T15:33:09;30.00;1.00
1461;DHT22;724;49.910;12.530;2023-06-22T15:35:36;29.80;1.00
1461;DHT22;724;49.910;12.530;2023-06-22T15:38:03;30.10;1.00
1461;DHT22;724;49.910;12.530;2023-06-22T15:40:30;29.50;1.00
1461;DHT22;724;49.910;12.530;2023-06-22T15:42:57;29.50;1.00
1461;DHT22;724;49.910;12.530;2023-06-22T15:45:26;29.50;1.00
1461;DHT22;724;49.910;12.530;2023-06-22T15:47:54;29.40;1.00
1461;DHT22;724;49.910;12.530;2023-06-22T15:50:21;29.60;1.00
1461;DHT22;724;49.910;12.530;2023-06-22T15:52:48;29.50;1.00
1461;DHT22;724;49.910;12.530;2023-06-22T15:55:16;29.40;1.00
1461;DHT22;724;49.910;12.530;2023-06-22T15:57:43;29.80;1.00
1461;DHT22;724;49.910;12.530;2023-06-22T16:00:13;29.80;1.00
1461;DHT22;724;49.910;12.530;2023-06-22T16:02:40;29.80;1.00
1461;DHT22;724;49.910;12.530;2023-06-22T16:05:08;29.60;1.00
1461;DHT22;724;49.910;12.530;2023-06-22T16:07:36;29.40;1.00
1461;DHT22;724;49.910;12.530;2023-06-22T16:10:03;29.40;1.00
1461;DHT22;724;49.910;12.530;2023-06-22T16:12:29;29.60;1.00
1461;DHT22;724;49.910;12.530;2023-06-22T16:14:56;30.00;1.00
1461;DHT22;724;49.910;12.530;2023-06-22T16:17:23;29.90;1.00
1461;DHT22;724;49.910;12.530;2023-06-22T16:19:52;29.50;1.00